Time;durP1;ratioP1;P1;durP2;ratioP2;P2;SDS_P1;SDS_P2;PMS_P1;PMS_P2;Temp;Humidity;BMP_temperature;BMP_pressure;BME280_temperature;BME280_humidity;BME280_pressure;Samples;Min_cycle;Max_cycle;Signal;HPM_P1;HPM_P2
2024/03/03 00:00:40;;;;;;;43.17;32.10;;;13.00;99.90;;;;;;5073469;28;20224;-77
2024/03/03 00:03:07;;;;;;;36.47;30.17;;;13.00;99.90;;;;;;5074138;28;20542;-77
2024/03/03 00:05:34;;;;;;;32.80;27.45;;;13.00;99.90;;;;;;5052619;28;20310;-78
2024/03/03 00:08:01;;;;;;;37.55;31.13;;;13.00;99.90;;;;;;5053513;28;20232;-78
2024/03/03 00:10:28;;;;;;;40.63;31.23;;;13.00;99.90;;;;;;5063798;28;20293;-77
2024/03/03 00:12:58;;;;;;;42.50;32.05;;;13.00;99.90;;;;;;5068259;28;20228;-77
2024/03/03 00:15:25;;;;;;;37.00;32.42;;;13.00;99.90;;;;;;5059960;28;20307;-77
2024/03/03 00:17:52;;;;;;;45.13;34.28;;;12.90;99.90;;;;;;5053596;28;20635;-77
2024/03/03 00:20:22;;;;;;;43.30;34.67;;;13.00;99.90;;;;;;5055876;28;20227;-77
2024/03/03 00:22:49;;;;;;;43.22;33.60;;;12.90;99.90;;;;;;5068998;28;20236;-78
2024/03/03 00:25:16;;;;;;;40.15;32.60;;;12.90;99.90;;;;;;5066171;28;20220;-77
2024/03/03 00:27:44;;;;;;;44.53;34.45;;;12.90;99.90;;;;;;5066447;28;20294;-77
2024/03/03 00:30:13;;;;;;;38.75;34.10;;;12.90;99.90;;;;;;5077501;28;20227;-78
2024/03/03 00:32:40;;;;;;;44.03;36.05;;;12.90;99.90;;;;;;5073656;28;20232;-78
2024/03/03 00:35:10;;;;;;;39.15;33.13;;;12.90;99.90;;;;;;5068088;28;20228;-77
2024/03/03 00:37:40;;;;;;;47.35;36.10;;;12.90;99.90;;;;;;5071490;28;20219;-77
2024/03/03 00:40:09;;;;;;;44.75;36.75;;;12.80;99.90;;;;;;5072192;28;20216;-78
2024/03/03 00:42:38;;;;;;;43.38;32.83;;;12.80;99.90;;;;;;5068528;28;20220;-79
2024/03/03 00:45:06;;;;;;;44.45;35.33;;;12.80;99.90;;;;;;5068389;28;20232;-79
2024/03/03 00:47:45;;;;;;;41.53;33.88;;;12.70;99.90;;;;;;5072524;28;20228;-79
2024/03/03 00:50:31;;;;;;;41.20;35.20;;;12.70;99.90;;;;;;5072156;28;20302;-77
2024/03/03 00:52:58;;;;;;;36.25;30.65;;;12.70;99.90;;;;;;5081224;28;20277;-77
2024/03/03 00:55:32;;;;;;;41.75;33.33;;;12.70;99.90;;;;;;5072782;28;20230;-78
2024/03/03 00:58:12;;;;;;;39.33;31.95;;;12.70;99.90;;;;;;5060218;28;20439;-78
2024/03/03 01:00:40;;;;;;;40.97;30.35;;;12.70;99.90;;;;;;5072458;28;20289;-78
2024/03/03 01:03:26;;;;;;;39.65;33.03;;;12.80;99.90;;;;;;5072813;28;20551;-79
2024/03/03 01:05:53;;;;;;;37.95;33.65;;;12.70;99.90;;;;;;5052683;28;20669;-78
2024/03/03 01:08:20;;;;;;;40.50;32.80;;;12.70;99.90;;;;;;5068598;28;20220;-78
2024/03/03 01:10:47;;;;;;;43.75;36.33;;;12.70;99.90;;;;;;5075340;28;20223;-78
2024/03/03 01:13:24;;;;;;;46.67;37.10;;;12.70;99.90;;;;;;5089031;28;20246;-79
2024/03/03 01:15:51;;;;;;;47.58;36.63;;;12.60;99.90;;;;;;5072400;28;20270;-79
2024/03/03 01:18:22;;;;;;;42.33;32.78;;;12.60;99.90;;;;;;5073225;28;20240;-79
2024/03/03 01:20:49;;;;;;;41.97;33.05;;;12.60;99.90;;;;;;5072644;28;20301;-76
2024/03/03 01:23:16;;;;;;;43.95;36.58;;;12.60;99.90;;;;;;5061895;28;20236;-77
2024/03/03 01:25:53;;;;;;;44.47;35.60;;;12.60;99.90;;;;;;5071363;28;20235;-77
2024/03/03 01:28:20;;;;;;;47.58;36.72;;;12.60;99.90;;;;;;5091202;28;20284;-78
2024/03/03 01:30:47;;;;;;;42.83;34.75;;;12.60;99.90;;;;;;5089119;28;20234;-79
2024/03/03 01:33:14;;;;;;;41.85;35.03;;;12.50;99.90;;;;;;5072979;28;20228;-77
2024/03/03 01:35:43;;;;;;;51.40;39.92;;;12.50;99.90;;;;;;5072511;28;20696;-78
2024/03/03 01:38:16;;;;;;;43.17;36.70;;;12.40;99.90;;;;;;5072948;28;20285;-78
2024/03/03 01:40:43;;;;;;;44.47;36.67;;;12.40;99.90;;;;;;5070374;28;20258;-78
2024/03/03 01:43:11;;;;;;;41.10;35.92;;;12.40;99.90;;;;;;5073553;28;20239;-77
2024/03/03 01:45:42;;;;;;;40.78;32.30;;;12.30;99.90;;;;;;5092428;28;20254;-77
2024/03/03 01:48:10;;;;;;;44.90;34.80;;;12.40;99.90;;;;;;5089926;28;20605;-77
2024/03/03 01:50:38;;;;;;;50.92;38.97;;;12.40;99.90;;;;;;5092681;28;20258;-77
2024/03/03 01:53:08;;;;;;;42.50;35.22;;;12.40;99.90;;;;;;5092891;28;20251;-78
2024/03/03 01:55:44;;;;;;;45.13;38.53;;;12.40;99.90;;;;;;5092779;28;20232;-78
2024/03/03 01:58:13;;;;;;;40.45;34.20;;;12.40;99.90;;;;;;5084172;28;20225;-78
2024/03/03 02:00:45;;;;;;;43.72;35.22;;;12.40;99.90;;;;;;5092848;28;20222;-78
2024/03/03 02:03:13;;;;;;;41.08;34.45;;;12.40;99.90;;;;;;5081856;28;20230;-77
2024/03/03 02:05:40;;;;;;;37.00;32.63;;;12.40;99.90;;;;;;5089709;28;20588;-78
2024/03/03 02:08:09;;;;;;;42.20;35.47;;;12.50;99.90;;;;;;5071941;28;20234;-77
2024/03/03 02:10:37;;;;;;;44.65;36.42;;;12.50;99.90;;;;;;5072143;28;20223;-77
2024/03/03 02:13:04;;;;;;;45.20;33.92;;;12.50;99.90;;;;;;5071759;28;20221;-77
2024/03/03 02:15:31;;;;;;;44.33;35.45;;;12.60;99.90;;;;;;5072444;28;20216;-78
2024/03/03 02:17:58;;;;;;;46.30;38.42;;;12.60;99.90;;;;;;5071598;28;20224;-77
2024/03/03 02:20:28;;;;;;;45.33;36.78;;;12.60;99.90;;;;;;5072502;28;20216;-76
2024/03/03 02:22:57;;;;;;;47.42;37.53;;;12.60;99.90;;;;;;5071253;28;20573;-78
2024/03/03 02:25:24;;;;;;;42.25;35.60;;;12.60;99.90;;;;;;5074133;28;20220;-78
2024/03/03 02:27:51;;;;;;;45.00;37.55;;;12.60;99.90;;;;;;5090647;28;20274;-78
2024/03/03 02:30:18;;;;;;;44.20;34.47;;;12.60;99.90;;;;;;5095925;28;20223;-79
2024/03/03 02:32:48;;;;;;;42.92;36.00;;;12.70;99.90;;;;;;5096124;28;20241;-79
2024/03/03 02:35:15;;;;;;;42.78;34.75;;;12.70;99.90;;;;;;5095713;28;20301;-78
2024/03/03 02:37:46;;;;;;;43.47;36.25;;;12.70;99.90;;;;;;5095544;28;20234;-79
2024/03/03 02:40:17;;;;;;;45.47;37.50;;;12.70;99.90;;;;;;5093745;28;20680;-78
2024/03/03 02:42:44;;;;;;;49.70;38.22;;;12.80;99.90;;;;;;5095858;28;20537;-77
2024/03/03 02:45:11;;;;;;;42.92;36.55;;;12.70;99.90;;;;;;5095488;28;20223;-77
2024/03/03 02:47:39;;;;;;;38.83;33.90;;;12.60;99.90;;;;;;5095721;28;20227;-77
2024/03/03 02:50:07;;;;;;;42.88;33.72;;;12.60;99.90;;;;;;5094897;28;20231;-77
2024/03/03 02:52:34;;;;;;;41.38;34.58;;;12.70;99.90;;;;;;5095876;28;20247;-76
2024/03/03 02:55:01;;;;;;;48.13;38.15;;;12.70;99.90;;;;;;5094947;28;20222;-77
2024/03/03 02:57:30;;;;;;;40.58;36.03;;;12.70;99.90;;;;;;5095223;28;20661;-76
2024/03/03 02:59:56;;;;;;;44.30;36.75;;;12.60;99.90;;;;;;5095495;28;20684;-76
2024/03/03 03:02:24;;;;;;;47.20;37.25;;;12.60;99.90;;;;;;5095309;28;20684;-76
2024/03/03 03:04:53;;;;;;;46.20;34.92;;;12.50;99.90;;;;;;5095567;28;20314;-76
2024/03/03 03:07:20;;;;;;;39.55;35.30;;;12.50;99.90;;;;;;5077992;28;20285;-76
2024/03/03 03:09:48;;;;;;;43.17;34.33;;;12.50;99.90;;;;;;5075451;28;20224;-76
2024/03/03 03:12:15;;;;;;;44.75;38.15;;;12.50;99.90;;;;;;5074813;28;20678;-76
2024/03/03 03:14:43;;;;;;;41.35;35.15;;;12.50;99.90;;;;;;5092809;28;20219;-77
2024/03/03 03:17:10;;;;;;;47.55;37.67;;;12.50;99.90;;;;;;5094734;28;20610;-76
2024/03/03 03:19:38;;;;;;;46.40;39.47;;;12.50;99.90;;;;;;5095164;28;20219;-76
2024/03/03 03:22:06;;;;;;;43.40;35.78;;;12.40;99.90;;;;;;5095029;28;20219;-77
2024/03/03 03:24:33;;;;;;;42.67;36.28;;;12.40;99.90;;;;;;5095139;28;20276;-76
2024/03/03 03:27:00;;;;;;;43.72;36.75;;;12.40;99.90;;;;;;5094754;28;20212;-78
2024/03/03 03:29:27;;;;;;;54.58;38.17;;;12.40;99.90;;;;;;5094887;28;20223;-77
2024/03/03 03:31:56;;;;;;;45.13;38.17;;;12.30;99.90;;;;;;5095088;28;20219;-76
2024/03/03 03:34:23;;;;;;;40.88;36.47;;;12.30;99.90;;;;;;5085422;28;20307;-76
2024/03/03 03:36:50;;;;;;;44.47;36.60;;;12.20;99.90;;;;;;5093846;28;20239;-77
2024/03/03 03:39:18;;;;;;;39.08;34.05;;;12.20;99.90;;;;;;5092491;28;20676;-76
2024/03/03 03:41:49;;;;;;;49.03;37.25;;;12.30;99.90;;;;;;5094773;28;20250;-78
2024/03/03 03:44:17;;;;;;;47.00;38.17;;;12.30;99.90;;;;;;5094041;28;20226;-78
2024/03/03 03:46:44;;;;;;;46.35;39.58;;;12.20;99.90;;;;;;5094713;28;20211;-78
2024/03/03 03:49:14;;;;;;;47.00;38.45;;;12.20;99.90;;;;;;5089997;28;20219;-78
2024/03/03 03:51:42;;;;;;;48.17;36.65;;;12.20;99.90;;;;;;5081437;28;20250;-78
2024/03/03 03:54:09;;;;;;;49.40;38.47;;;12.20;99.90;;;;;;5087715;28;20231;-78
2024/03/03 03:56:37;;;;;;;53.08;39.70;;;12.20;99.90;;;;;;5090365;28;20269;-77
2024/03/03 03:59:04;;;;;;;47.90;36.88;;;12.20;99.90;;;;;;5092452;28;20293;-77
2024/03/03 04:01:31;;;;;;;48.67;37.90;;;12.20;99.90;;;;;;5093061;28;20220;-77
2024/03/03 04:04:02;;;;;;;45.28;37.30;;;12.20;99.90;;;;;;5092863;28;20227;-78
2024/03/03 04:06:30;;;;;;;46.10;37.78;;;12.20;99.90;;;;;;5086883;28;20215;-78
2024/03/03 04:09:04;;;;;;;42.72;36.83;;;12.20;99.90;;;;;;5084072;28;20283;-78
2024/03/03 04:11:31;;;;;;;46.08;39.42;;;12.20;99.90;;;;;;5087926;28;20571;-76
2024/03/03 04:13:58;;;;;;;47.53;37.15;;;12.30;99.90;;;;;;5087584;28;20223;-78
2024/03/03 04:16:25;;;;;;;50.05;38.30;;;12.30;99.90;;;;;;5092371;28;20673;-78
2024/03/03 04:18:53;;;;;;;46.10;36.75;;;12.30;99.90;;;;;;5093174;28;20231;-76
2024/03/03 04:21:20;;;;;;;48.00;39.22;;;12.30;99.90;;;;;;5091365;28;20219;-76
2024/03/03 04:23:48;;;;;;;44.00;36.88;;;12.20;99.90;;;;;;5087525;28;20220;-78
2024/03/03 04:26:15;;;;;;;45.17;37.35;;;12.20;99.90;;;;;;5091609;28;20310;-76
2024/03/03 04:28:43;;;;;;;43.58;38.58;;;12.20;99.90;;;;;;5094072;28;20712;-76
2024/03/03 04:31:13;;;;;;;44.75;38.20;;;12.20;99.90;;;;;;5092092;28;20215;-76
2024/03/03 04:33:47;;;;;;;51.20;38.42;;;12.20;99.90;;;;;;5089149;28;20215;-76
2024/03/03 04:36:14;;;;;;;49.13;40.95;;;12.20;99.90;;;;;;5083028;28;20289;-75
2024/03/03 04:38:42;;;;;;;58.45;42.83;;;12.10;99.90;;;;;;5073490;28;20300;-76
2024/03/03 04:41:17;;;;;;;44.35;38.05;;;12.10;99.90;;;;;;5060635;28;20258;-77
2024/03/03 04:43:50;;;;;;;53.53;39.10;;;12.10;99.90;;;;;;5058948;28;20220;-76
2024/03/03 04:46:17;;;;;;;46.38;37.67;;;12.10;99.90;;;;;;5072321;28;20678;-76
2024/03/03 04:48:44;;;;;;;47.83;37.78;;;12.10;99.90;;;;;;5072107;28;20216;-76
2024/03/03 04:51:11;;;;;;;46.72;38.95;;;12.10;99.90;;;;;;5072849;28;20227;-78
2024/03/03 04:53:39;;;;;;;50.90;39.58;;;12.10;99.90;;;;;;5054065;28;20252;-78
2024/03/03 04:56:10;;;;;;;47.20;38.92;;;12.20;99.90;;;;;;5053753;28;20228;-76
2024/03/03 04:58:38;;;;;;;46.13;38.13;;;12.20;99.90;;;;;;5053033;28;20274;-78
2024/03/03 05:01:05;;;;;;;48.17;40.10;;;12.20;99.90;;;;;;5068577;28;20228;-78
2024/03/03 05:03:35;;;;;;;47.38;39.80;;;12.20;99.90;;;;;;5072610;28;20708;-76
2024/03/03 05:06:03;;;;;;;45.60;39.40;;;12.20;99.90;;;;;;5073519;28;20299;-76
2024/03/03 05:08:30;;;;;;;46.55;39.13;;;12.30;99.90;;;;;;5072102;28;20803;-76
2024/03/03 05:10:57;;;;;;;47.40;38.17;;;12.30;99.90;;;;;;5073119;28;20534;-76
2024/03/03 05:13:24;;;;;;;50.45;39.15;;;12.30;99.90;;;;;;5072449;28;20235;-76
2024/03/03 05:15:53;;;;;;;47.35;37.85;;;12.40;99.90;;;;;;5073351;28;20592;-76
2024/03/03 05:18:22;;;;;;;47.83;37.33;;;12.40;99.90;;;;;;5089469;28;20241;-77
2024/03/03 05:20:50;;;;;;;43.55;38.28;;;12.40;99.90;;;;;;5092637;28;20223;-76
2024/03/03 05:23:18;;;;;;;49.00;39.97;;;12.30;99.90;;;;;;5092638;28;20242;-76
2024/03/03 05:25:46;;;;;;;49.92;39.13;;;12.30;99.90;;;;;;5078854;28;20232;-76
2024/03/03 05:28:13;;;;;;;43.38;36.70;;;12.30;99.90;;;;;;5072911;28;20223;-77
2024/03/03 05:30:40;;;;;;;46.85;38.70;;;12.30;99.90;;;;;;5072652;28;20230;-77
2024/03/03 05:33:09;;;;;;;45.22;38.22;;;12.40;99.90;;;;;;5072188;28;20319;-76
2024/03/03 05:35:39;;;;;;;46.53;38.38;;;12.30;99.90;;;;;;5072275;28;20243;-76
2024/03/03 05:38:09;;;;;;;44.42;37.33;;;12.30;99.90;;;;;;5072822;28;20244;-76
2024/03/03 05:40:40;;;;;;;43.22;38.33;;;12.40;99.90;;;;;;5072154;28;20869;-78
2024/03/03 05:43:07;;;;;;;48.40;40.85;;;12.30;99.90;;;;;;5073016;28;20297;-78
2024/03/03 05:45:34;;;;;;;47.75;40.58;;;12.30;99.90;;;;;;5071649;28;20266;-77
2024/03/03 05:48:01;;;;;;;47.22;39.55;;;12.30;99.90;;;;;;5072819;28;20231;-75
2024/03/03 05:50:30;;;;;;;49.40;38.25;;;12.30;99.90;;;;;;5072165;28;20274;-78
2024/03/03 05:52:57;;;;;;;50.28;40.75;;;12.20;99.90;;;;;;5072482;28;20291;-78
2024/03/03 05:55:24;;;;;;;46.55;37.92;;;12.20;99.90;;;;;;5071885;28;20566;-76
2024/03/03 05:57:51;;;;;;;46.97;40.75;;;12.30;99.90;;;;;;5072961;28;20220;-76
2024/03/03 06:00:18;;;;;;;49.60;39.00;;;12.30;99.90;;;;;;5075092;28;20223;-76
2024/03/03 06:02:45;;;;;;;51.22;39.60;;;12.30;99.90;;;;;;5076251;28;20220;-76
2024/03/03 06:05:12;;;;;;;48.08;39.92;;;12.40;99.90;;;;;;5076478;28;20224;-76
2024/03/03 06:07:41;;;;;;;49.65;37.80;;;12.30;99.90;;;;;;5076074;28;20247;-77
2024/03/03 06:10:08;;;;;;;51.58;40.47;;;12.30;99.90;;;;;;5076046;28;20239;-77
2024/03/03 06:12:35;;;;;;;48.63;39.95;;;12.40;99.90;;;;;;5075979;28;20220;-79
2024/03/03 06:15:03;;;;;;;44.40;38.35;;;12.30;99.90;;;;;;5076381;28;20539;-79
2024/03/03 06:17:31;;;;;;;41.33;36.55;;;12.40;99.90;;;;;;5076005;28;20277;-79
2024/03/03 06:19:58;;;;;;;47.63;38.72;;;12.40;99.90;;;;;;5075807;28;20546;-77
2024/03/03 06:22:25;;;;;;;46.22;39.20;;;12.40;99.90;;;;;;5075478;28;20236;-79
2024/03/03 06:24:53;;;;;;;49.75;40.55;;;12.50;99.90;;;;;;5076235;28;20216;-79
2024/03/03 06:27:20;;;;;;;41.35;36.95;;;12.50;99.90;;;;;;5076240;28;20234;-79
2024/03/03 06:29:47;;;;;;;45.80;38.30;;;12.50;99.90;;;;;;5075913;28;20216;-79
2024/03/03 06:32:14;;;;;;;44.22;37.22;;;12.50;99.90;;;;;;5075934;28;20251;-77
2024/03/03 06:34:41;;;;;;;44.47;38.80;;;12.60;99.90;;;;;;5075548;28;20430;-77
2024/03/03 06:37:08;;;;;;;48.15;41.60;;;12.60;99.90;;;;;;5075681;28;20562;-79
2024/03/03 06:39:37;;;;;;;47.40;41.50;;;12.60;99.90;;;;;;5075564;28;20560;-77
2024/03/03 06:42:10;;;;;;;47.22;38.83;;;12.60;99.90;;;;;;5074583;28;20234;-77
2024/03/03 06:44:40;;;;;;;46.42;38.00;;;12.60;99.90;;;;;;5075529;28;20228;-77
2024/03/03 06:47:07;;;;;;;48.47;40.28;;;12.50;99.90;;;;;;5075816;28;20221;-77
2024/03/03 06:49:40;;;;;;;47.78;40.17;;;12.50;99.90;;;;;;5074709;28;20230;-77
2024/03/03 06:52:07;;;;;;;48.35;39.22;;;12.50;99.90;;;;;;5075436;28;20246;-77
2024/03/03 06:54:34;;;;;;;50.50;41.92;;;12.60;99.90;;;;;;5075110;28;20670;-77
2024/03/03 06:57:01;;;;;;;48.03;39.75;;;12.60;99.90;;;;;;5076053;28;20235;-78
2024/03/03 06:59:32;;;;;;;50.33;41.80;;;12.60;99.90;;;;;;5075169;28;20224;-77
2024/03/03 07:02:01;;;;;;;45.88;39.70;;;12.60;99.90;;;;;;5075942;28;20628;-79
2024/03/03 07:04:28;;;;;;;47.35;39.00;;;12.60;99.90;;;;;;5074746;28;20237;-78
2024/03/03 07:06:56;;;;;;;50.42;39.92;;;12.60;99.90;;;;;;5075762;28;20243;-79
2024/03/03 07:09:23;;;;;;;49.03;42.28;;;12.60;99.90;;;;;;5075578;28;20309;-79
2024/03/03 07:11:52;;;;;;;45.85;39.17;;;12.60;99.90;;;;;;5074948;28;20534;-79
2024/03/03 07:14:19;;;;;;;49.83;41.75;;;12.60;99.90;;;;;;5075096;28;20242;-77
2024/03/03 07:16:48;;;;;;;45.67;39.63;;;12.60;99.90;;;;;;5075055;28;20666;-77
2024/03/03 07:19:15;;;;;;;45.15;39.17;;;12.60;99.90;;;;;;5075183;28;20224;-77
2024/03/03 07:21:42;;;;;;;48.35;39.45;;;12.60;99.90;;;;;;5074366;28;20319;-77
2024/03/03 07:24:13;;;;;;;49.08;40.85;;;12.70;99.90;;;;;;5075159;28;20228;-79
2024/03/03 07:26:40;;;;;;;52.88;39.50;;;12.70;99.90;;;;;;5074919;28;20310;-79
2024/03/03 07:29:07;;;;;;;41.28;36.33;;;12.80;99.90;;;;;;5074737;28;20231;-79
2024/03/03 07:31:37;;;;;;;42.28;37.80;;;12.80;99.90;;;;;;5072595;28;20228;-77
2024/03/03 07:34:05;;;;;;;41.35;36.85;;;12.80;99.90;;;;;;5062634;28;20223;-79
2024/03/03 07:36:32;;;;;;;44.08;39.25;;;12.80;99.90;;;;;;5064638;28;20285;-79
2024/03/03 07:39:00;;;;;;;44.28;39.03;;;12.80;99.90;;;;;;5066291;28;20224;-77
2024/03/03 07:41:27;;;;;;;45.75;38.20;;;12.80;99.90;;;;;;5074409;28;20303;-79
2024/03/03 07:43:54;;;;;;;44.15;36.92;;;12.80;99.90;;;;;;5075033;28;20228;-77
2024/03/03 07:46:21;;;;;;;47.70;38.90;;;12.80;99.90;;;;;;5073799;28;20220;-79
2024/03/03 07:48:48;;;;;;;41.72;36.67;;;12.80;99.90;;;;;;5074891;28;20223;-77
2024/03/03 07:51:19;;;;;;;49.60;40.92;;;12.90;99.90;;;;;;5074634;28;20592;-77
2024/03/03 07:53:47;;;;;;;42.60;38.17;;;12.90;99.90;;;;;;5054368;28;21072;-79
2024/03/03 07:56:16;;;;;;;42.42;37.38;;;12.90;99.90;;;;;;5054596;28;20531;-77
2024/03/03 07:58:43;;;;;;;49.25;36.95;;;12.90;99.90;;;;;;5053740;28;20252;-77
2024/03/03 08:01:10;;;;;;;43.67;37.28;;;12.80;99.90;;;;;;5049941;28;20220;-77
2024/03/03 08:03:37;;;;;;;42.90;36.50;;;12.90;99.90;;;;;;5046810;28;20248;-77
2024/03/03 08:06:04;;;;;;;41.00;36.20;;;12.90;99.90;;;;;;5068677;28;20238;-77
2024/03/03 08:08:33;;;;;;;38.83;34.63;;;12.90;99.90;;;;;;5053812;28;20221;-78
2024/03/03 08:11:01;;;;;;;41.50;36.27;;;13.00;99.90;;;;;;5054925;28;20478;-79
2024/03/03 08:13:28;;;;;;;39.42;35.08;;;13.00;99.90;;;;;;5054139;28;20467;-78
2024/03/03 08:16:00;;;;;;;39.27;35.30;;;13.10;99.90;;;;;;5054101;28;20228;-79
2024/03/03 08:18:30;;;;;;;38.20;33.07;;;13.10;99.90;;;;;;5054247;28;20471;-77
2024/03/03 08:20:57;;;;;;;37.05;30.95;;;13.20;99.90;;;;;;5054220;28;20462;-79
2024/03/03 08:23:25;;;;;;;36.95;32.45;;;13.30;99.90;;;;;;5056939;28;20231;-77
2024/03/03 08:25:59;;;;;;;37.93;33.60;;;13.30;99.90;;;;;;5062979;28;20323;-78
2024/03/03 08:31:07;;;;;;;35.80;31.90;;;13.30;99.90;;;;;;5049794;28;20251;-79
2024/03/03 08:33:34;;;;;;;34.60;30.50;;;13.40;99.90;;;;;;5053896;28;20463;-78
2024/03/03 08:36:04;;;;;;;37.92;32.58;;;13.40;99.90;;;;;;5053366;28;20224;-78
2024/03/03 08:38:49;;;;;;;36.67;32.77;;;13.50;99.90;;;;;;5044988;28;20221;-79
2024/03/03 08:41:17;;;;;;;34.83;31.10;;;13.50;99.90;;;;;;5056061;28;20458;-79
2024/03/03 08:43:44;;;;;;;38.50;31.53;;;13.50;99.90;;;;;;5073938;28;20469;-79
2024/03/03 08:46:15;;;;;;;35.13;31.43;;;13.60;99.90;;;;;;5073128;28;26306;-79
2024/03/03 08:48:42;;;;;;;34.43;28.73;;;13.60;99.90;;;;;;5073378;28;20845;-79
2024/03/03 08:51:17;;;;;;;37.03;31.50;;;13.70;99.90;;;;;;5072747;28;20502;-77
2024/03/03 08:53:44;;;;;;;35.63;29.77;;;13.70;99.90;;;;;;5073387;28;20975;-79
2024/03/03 08:56:15;;;;;;;36.37;28.13;;;13.70;99.90;;;;;;5073059;28;20995;-79
2024/03/03 08:58:51;;;;;;;34.80;29.93;;;13.70;99.90;;;;;;5073408;28;20462;-77
2024/03/03 09:01:21;;;;;;;30.33;27.23;;;13.60;99.90;;;;;;5052360;28;20542;-79
2024/03/03 09:03:48;;;;;;;31.83;28.50;;;13.60;99.90;;;;;;5069185;28;20224;-77
2024/03/03 09:06:15;;;;;;;31.23;27.97;;;13.60;99.90;;;;;;5072403;28;20470;-77
2024/03/03 09:08:44;;;;;;;30.57;27.27;;;13.70;99.90;;;;;;5073507;28;20466;-77
2024/03/03 09:11:12;;;;;;;33.63;26.80;;;13.80;99.90;;;;;;5072725;28;20470;-77
2024/03/03 09:13:45;;;;;;;32.10;27.20;;;13.70;99.90;;;;;;5073326;28;20968;-77
2024/03/03 09:16:14;;;;;;;32.80;27.77;;;13.80;99.90;;;;;;5072353;28;20467;-79
2024/03/03 09:18:41;;;;;;;28.40;25.40;;;13.90;99.90;;;;;;5062743;28;20475;-79
2024/03/03 09:21:08;;;;;;;30.70;27.50;;;13.90;99.90;;;;;;5072293;28;20577;-79
2024/03/03 09:23:36;;;;;;;26.13;23.27;;;13.80;99.90;;;;;;5073206;28;20959;-77
2024/03/03 09:26:03;;;;;;;28.17;25.17;;;13.90;99.90;;;;;;5071909;28;20469;-77
2024/03/03 09:28:38;;;;;;;26.07;23.37;;;14.00;99.90;;;;;;5073286;28;20485;-77
2024/03/03 09:31:05;;;;;;;26.70;23.97;;;14.10;99.90;;;;;;5072593;28;20466;-77
2024/03/03 09:33:38;;;;;;;27.67;23.87;;;14.10;99.90;;;;;;5073220;28;20549;-77
2024/03/03 09:36:07;;;;;;;24.93;22.43;;;14.10;99.90;;;;;;5076246;28;20925;-77
2024/03/03 09:38:34;;;;;;;25.27;22.33;;;14.20;99.90;;;;;;5076471;28;20465;-77
2024/03/03 09:41:01;;;;;;;25.60;23.03;;;14.30;99.90;;;;;;5067340;28;21006;-77
2024/03/03 09:43:33;;;;;;;22.90;20.60;;;14.30;99.90;;;;;;5064504;28;20462;-77
2024/03/03 09:46:03;;;;;;;26.47;23.47;;;14.40;99.90;;;;;;5068330;28;20462;-77
2024/03/03 09:48:30;;;;;;;22.30;19.93;;;14.50;99.90;;;;;;5065773;28;20489;-77
2024/03/03 09:50:59;;;;;;;23.63;21.20;;;14.60;99.90;;;;;;5075947;28;20546;-79
2024/03/03 09:53:27;;;;;;;21.67;19.37;;;14.70;99.90;;;;;;5076155;28;20535;-79
2024/03/03 09:55:56;;;;;;;24.30;21.53;;;14.80;99.90;;;;;;5076948;28;20466;-79
2024/03/03 09:58:24;;;;;;;23.30;20.80;;;14.90;99.90;;;;;;5074703;28;20477;-79
2024/03/03 10:00:53;;;;;;;24.27;21.40;;;14.90;99.90;;;;;;5066325;28;20466;-77
2024/03/03 10:03:21;;;;;;;22.03;19.60;;;14.90;99.90;;;;;;5075800;28;20494;-79
2024/03/03 10:05:51;;;;;;;23.50;21.03;;;14.90;99.90;;;;;;5076714;28;20963;-77
2024/03/03 10:08:23;;;;;;;21.73;19.60;;;14.90;99.90;;;;;;5076822;28;21098;-77
2024/03/03 10:10:54;;;;;;;20.47;18.60;;;14.80;99.90;;;;;;5076297;28;20559;-79
2024/03/03 10:13:23;;;;;;;24.93;20.60;;;14.90;99.90;;;;;;5076061;28;20591;-79
2024/03/03 10:15:59;;;;;;;20.60;18.20;;;15.00;99.90;;;;;;5075231;28;21025;-79
2024/03/03 10:18:26;;;;;;;21.53;19.43;;;15.10;99.90;;;;;;5076266;28;20497;-79
2024/03/03 10:20:57;;;;;;;20.50;18.40;;;15.10;99.90;;;;;;5056233;28;20510;-79
2024/03/03 10:23:28;;;;;;;21.50;19.30;;;15.30;99.90;;;;;;5072412;28;20854;-77
2024/03/03 10:25:56;;;;;;;21.53;18.33;;;15.20;99.90;;;;;;5045335;28;20532;-77
2024/03/03 10:28:23;;;;;;;18.47;16.50;;;15.20;99.90;;;;;;5056185;28;20459;-79
2024/03/03 10:30:51;;;;;;;22.90;17.20;;;15.30;99.90;;;;;;5055487;28;20494;-77
2024/03/03 10:33:19;;;;;;;19.60;17.50;;;15.30;99.90;;;;;;5056268;28;21023;-77
2024/03/03 10:35:46;;;;;;;18.20;16.30;;;15.40;99.90;;;;;;5055356;28;20482;-79
2024/03/03 10:38:14;;;;;;;19.37;17.37;;;15.40;99.90;;;;;;5055853;28;20957;-77
2024/03/03 10:40:44;;;;;;;16.83;15.20;;;15.40;99.90;;;;;;5045817;28;20471;-77
2024/03/03 10:43:13;;;;;;;17.60;15.73;;;15.50;99.90;;;;;;5062028;28;20536;-77
2024/03/03 10:45:40;;;;;;;17.40;15.77;;;15.50;99.90;;;;;;5045553;28;20525;-77
2024/03/03 10:48:10;;;;;;;19.30;16.10;;;15.60;99.90;;;;;;5061588;28;20479;-78
2024/03/03 10:50:38;;;;;;;16.43;14.20;;;15.60;99.90;;;;;;5052821;28;20478;-77
2024/03/03 10:53:13;;;;;;;17.47;14.17;;;15.70;99.90;;;;;;5063352;28;20463;-78
2024/03/03 10:56:04;;;;;;;15.90;13.80;;;15.80;99.90;;;;;;5055115;28;20516;-78
2024/03/03 10:58:34;;;;;;;22.47;14.37;;;15.80;99.90;;;;;;5055563;28;20594;-79
2024/03/03 11:01:02;;;;;;;14.60;13.13;;;15.90;99.90;;;;;;5068954;28;20484;-80
2024/03/03 11:03:30;;;;;;;14.47;13.03;;;15.80;99.90;;;;;;5074956;28;20470;-79
2024/03/03 11:05:58;;;;;;;14.80;13.00;;;15.90;99.90;;;;;;5074680;28;20458;-79
2024/03/03 11:08:26;;;;;;;14.80;13.30;;;15.80;99.90;;;;;;5075612;28;20958;-77
2024/03/03 11:10:59;;;;;;;14.43;12.93;;;15.80;99.90;;;;;;5074667;28;20477;-77
2024/03/03 11:13:31;;;;;;;16.13;14.27;;;15.90;99.90;;;;;;5066226;28;20482;-76
2024/03/03 11:16:04;;;;;;;15.00;13.50;;;15.90;99.90;;;;;;5074694;28;20485;-79
2024/03/03 11:18:37;;;;;;;16.90;15.27;;;15.90;99.90;;;;;;5075168;28;20466;-76
2024/03/03 11:21:09;;;;;;;15.87;14.37;;;15.80;99.90;;;;;;5054576;28;20901;-80
2024/03/03 11:23:44;;;;;;;17.60;15.73;;;15.80;99.90;;;;;;5055500;28;20557;-80
2024/03/03 11:26:16;;;;;;;15.47;13.93;;;15.70;99.90;;;;;;5074841;28;20454;-78
2024/03/03 11:28:49;;;;;;;17.50;15.70;;;15.80;99.90;;;;;;5075008;28;20462;-80
2024/03/03 11:31:19;;;;;;;15.30;13.80;;;15.80;99.90;;;;;;5072345;28;20467;-80
2024/03/03 11:33:48;;;;;;;16.53;15.03;;;15.80;99.90;;;;;;5074844;28;20463;-78
2024/03/03 11:36:19;;;;;;;16.80;14.90;;;15.80;99.90;;;;;;5073862;28;20454;-80
2024/03/03 11:38:48;;;;;;;15.47;13.50;;;15.90;99.90;;;;;;5074845;28;20472;-79
2024/03/03 11:41:20;;;;;;;14.30;12.80;;;15.90;99.90;;;;;;5074227;28;20471;-77
2024/03/03 11:43:48;;;;;;;14.47;13.10;;;15.90;99.90;;;;;;5073337;28;20486;-78
2024/03/03 11:46:49;;;;;;;14.60;13.10;;;15.80;99.90;;;;;;5074037;28;20462;-77
2024/03/03 11:49:19;;;;;;;15.13;13.60;;;15.80;99.90;;;;;;5074190;28;20958;-77
2024/03/03 11:51:47;;;;;;;16.43;14.83;;;15.90;99.90;;;;;;5074549;28;20553;-77
2024/03/03 11:54:15;;;;;;;14.73;13.33;;;15.90;99.90;;;;;;5065606;28;20466;-78
2024/03/03 11:56:46;;;;;;;14.50;13.03;;;15.90;99.90;;;;;;5073693;28;20474;-80
2024/03/03 11:59:13;;;;;;;15.30;13.00;;;16.00;99.90;;;;;;5074004;28;21041;-80
2024/03/03 12:01:45;;;;;;;14.60;13.30;;;16.00;99.90;;;;;;5074487;28;20469;-77
2024/03/03 12:04:14;;;;;;;15.37;13.73;;;16.10;99.90;;;;;;5073812;28;20478;-77
2024/03/03 12:06:42;;;;;;;17.67;15.97;;;16.20;99.90;;;;;;5074436;28;20473;-78
2024/03/03 12:09:15;;;;;;;22.90;18.60;;;16.30;99.90;;;;;;5073610;28;20870;-78
2024/03/03 12:11:49;;;;;;;22.40;20.13;;;16.30;99.90;;;;;;5073687;28;20458;-80
2024/03/03 12:14:16;;;;;;;23.30;20.60;;;16.10;99.90;;;;;;5073275;28;20474;-77
2024/03/03 12:16:43;;;;;;;21.57;19.23;;;16.00;99.90;;;;;;5074273;28;20464;-79
2024/03/03 12:19:10;;;;;;;22.27;19.93;;;16.00;99.90;;;;;;5067273;28;20463;-79
2024/03/03 12:21:42;;;;;;;21.93;19.63;;;16.00;99.90;;;;;;5053183;28;20494;-78
2024/03/03 12:24:15;;;;;;;21.83;19.57;;;16.00;99.90;;;;;;5060397;28;20462;-79
2024/03/03 12:26:56;;;;;;;23.53;21.27;;;16.00;99.90;;;;;;5050853;28;20965;-79
2024/03/03 12:29:23;;;;;;;24.00;21.60;;;16.10;99.90;;;;;;5061186;28;20946;-79
2024/03/03 12:31:50;;;;;;;22.67;17.00;;;16.00;99.90;;;;;;5073777;28;20458;-80
2024/03/03 12:34:18;;;;;;;16.30;14.70;;;16.00;99.90;;;;;;5072869;28;20481;-78
2024/03/03 12:36:47;;;;;;;15.97;14.43;;;16.00;99.90;;;;;;5074168;28;20475;-77
2024/03/03 12:39:15;;;;;;;20.33;14.33;;;15.90;99.90;;;;;;5080931;28;20477;-77